Time,TemperatureF,DewpointF,PressureIn,WindDirection,WindDirectionDegrees,WindSpeedMPH,WindSpeedGustMPH,Humidity,HourlyPrecipIn,Conditions,Clouds,dailyrainin,SoftwareType,DateUTC
2013-01-27 00:00:00,21.9,7.0,29.00,East,95,5.4,5.4,52,0.00,,---,0.00,VWS V14.01,2013-01-27 06:00:00,
2013-01-27 00:05:00,21.9,7.0,29.00,ESE,106,3.1,3.1,52,0.00,,---,0.00,VWS V14.01,2013-01-27 06:05:00,
2013-01-27 00:10:00,22.1,7.2,29.00,East,86,4.9,4.9,52,0.00,,---,0.00,VWS V14.01,2013-01-27 06:10:00,
2013-01-27 00:20:00,21.9,7.0,29.00,ESE,105,5.4,5.4,52,0.00,,---,0.00,VWS V14.01,2013-01-27 06:20:00,
2013-01-27 00:25:00,21.9,7.0,29.00,East,100,3.6,3.6,52,0.00,,---,0.00,VWS V14.01,2013-01-27 06:25:00,
2013-01-27 00:30:00,21.9,7.0,29.00,ESE,108,5.4,5.4,52,0.00,,---,0.00,VWS V14.01,2013-01-27 06:30:00,
2013-01-27 00:35:00,21.9,7.0,29.00,East,96,3.6,3.6,52,0.00,,---,0.00,VWS V14.01,2013-01-27 06:35:00,
2013-01-27 00:45:00,21.9,7.0,29.00,East,83,2.7,2.7,52,0.00,,---,0.00,VWS V14.01,2013-01-27 06:45:00,
2013-01-27 00:50:00,21.7,6.8,29.00,SE,126,3.1,3.1,52,0.00,,---,0.00,VWS V14.01,2013-01-27 06:50:00,
2013-01-27 01:00:00,21.7,6.8,29.00,ESE,120,2.7,2.7,52,0.00,,---,0.00,VWS V14.01,2013-01-27 07:00:00,
2013-01-27 01:15:00,21.7,6.8,28.97,ESE,102,3.1,3.1,52,0.00,,---,0.00,VWS V14.01,2013-01-27 07:15:00,
2013-01-27 01:20:00,21.7,6.8,28.97,ESE,112,4.0,4.0,52,0.00,,---,0.00,VWS V14.01,2013-01-27 07:20:00,
2013-01-27 01:30:00,21.9,7.0,29.00,ESE,108,3.6,3.6,52,0.00,,---,0.00,VWS V14.01,2013-01-27 07:30:00,
2013-01-27 01:35:00,21.9,7.0,29.00,ESE,118,3.6,3.6,52,0.00,,---,0.00,VWS V14.01,2013-01-27 07:35:00,
2013-01-27 01:45:00,21.9,7.4,29.00,ESE,115,5.4,5.4,53,0.00,,---,0.00,VWS V14.01,2013-01-27 07:45:00,
2013-01-27 01:55:00,21.9,7.4,29.00,ESE,102,2.7,2.7,53,0.00,,---,0.00,VWS V14.01,2013-01-27 07:55:00,
2013-01-27 02:05:00,21.9,7.4,29.00,ENE,75,3.1,3.1,53,0.00,,---,0.00,VWS V14.01,2013-01-27 08:05:00,
2013-01-27 02:10:00,22.1,7.6,29.00,SSE,148,3.1,3.1,53,0.00,,---,0.00,VWS V14.01,2013-01-27 08:10:00,
2013-01-27 02:20:00,22.3,7.8,28.97,ESE,119,4.0,4.0,53,0.00,,---,0.00,VWS V14.01,2013-01-27 08:20:00,
2013-01-27 02:25:00,22.5,7.9,28.97,SE,126,4.0,4.0,53,0.00,,---,0.00,VWS V14.01,2013-01-27 08:25:00,
2013-01-27 02:30:00,22.5,7.9,28.97,SE,124,4.9,4.9,53,0.00,,---,0.00,VWS V14.01,2013-01-27 08:30:00,
2013-01-27 02:35:00,22.6,8.1,28.97,SE,128,3.1,3.1,53,0.00,,---,0.00,VWS V14.01,2013-01-27 08:35:00,
2013-01-27 02:45:00,22.8,8.3,28.97,ESE,104,3.1,3.1,53,0.00,,---,0.00,VWS V14.01,2013-01-27 08:45:00,
2013-01-27 02:50:00,22.8,8.7,28.97,ESE,106,5.8,5.8,54,0.00,,---,0.00,VWS V14.01,2013-01-27 08:50:00,
2013-01-27 02:55:00,23.0,8.4,28.97,East,89,0.0,0.0,53,0.00,,---,0.00,VWS V14.01,2013-01-27 08:55:00,
2013-01-27 03:05:00,22.8,8.7,28.97,ENE,61,0.0,0.0,54,0.00,,---,0.00,VWS V14.01,2013-01-27 09:05:00,
2013-01-27 03:10:00,22.8,8.7,28.97,ESE,120,4.0,4.0,54,0.00,,---,0.00,VWS V14.01,2013-01-27 09:10:00,
2013-01-27 03:15:00,22.8,8.7,28.97,ESE,123,0.0,0.0,54,0.00,,---,0.00,VWS V14.01,2013-01-27 09:15:00,
2013-01-27 03:20:00,22.8,8.7,28.97,ENE,78,0.0,0.0,54,0.00,,---,0.00,VWS V14.01,2013-01-27 09:20:00,
2013-01-27 03:30:00,22.8,8.7,28.97,ESE,102,0.0,0.0,54,0.00,,---,0.00,VWS V14.01,2013-01-27 09:30:00,
2013-01-27 03:35:00,22.8,8.7,28.97,ESE,111,2.2,2.2,54,0.00,,---,0.00,VWS V14.01,2013-01-27 09:35:00,
2013-01-27 03:40:00,22.8,8.7,28.97,ESE,102,2.7,2.7,54,0.00,,---,0.00,VWS V14.01,2013-01-27 09:40:00,
2013-01-27 03:50:00,22.8,8.7,28.94,SE,127,2.7,2.7,54,0.00,,---,0.00,VWS V14.01,2013-01-27 09:50:00,
2013-01-27 03:55:00,22.6,8.5,28.94,ESE,109,2.7,2.7,54,0.00,,---,0.00,VWS V14.01,2013-01-27 09:55:00,
2013-01-27 04:05:00,22.6,8.9,28.94,NE,54,0.0,0.0,55,0.00,,---,0.00,VWS V14.01,2013-01-27 10:05:00,
2013-01-27 04:15:00,22.8,10.3,28.94,ESE,106,0.0,0.0,58,0.00,,---,0.00,VWS V14.01,2013-01-27 10:15:00,
2013-01-27 04:20:00,22.6,9.3,28.94,ESE,115,2.7,2.7,56,0.00,,---,0.00,VWS V14.01,2013-01-27 10:20:00,
2013-01-27 04:30:00,22.5,8.8,28.94,East,81,0.0,0.0,55,0.00,,---,0.00,VWS V14.01,2013-01-27 10:30:00,
2013-01-27 04:40:00,22.3,8.6,28.94,ENE,76,0.0,0.0,55,0.00,,---,0.00,VWS V14.01,2013-01-27 10:40:00,
2013-01-27 04:45:00,22.1,8.4,28.94,ENE,76,0.0,0.0,55,0.00,,---,0.00,VWS V14.01,2013-01-27 10:45:00,
2013-01-27 04:50:00,22.1,8.4,28.94,East,86,0.0,0.0,55,0.00,,---,0.00,VWS V14.01,2013-01-27 10:50:00,
2013-01-27 05:00:00,21.9,8.2,28.94,ENE,60,0.0,0.0,55,0.00,,---,0.00,VWS V14.01,2013-01-27 11:00:00,
2013-01-27 05:05:00,21.9,8.6,28.94,ENE,60,0.0,0.0,56,0.00,,---,0.00,VWS V14.01,2013-01-27 11:05:00,
2013-01-27 05:15:00,21.9,8.6,28.91,East,100,0.0,0.0,56,0.00,,---,0.00,VWS V14.01,2013-01-27 11:15:00,
2013-01-27 05:25:00,21.7,8.5,28.91,East,99,0.0,0.0,56,0.00,,---,0.00,VWS V14.01,2013-01-27 11:25:00,
2013-01-27 05:35:00,21.6,8.3,28.91,East,79,0.0,0.0,56,0.00,,---,0.00,VWS V14.01,2013-01-27 11:35:00,
2013-01-27 05:40:00,21.4,8.1,28.91,ENE,78,0.0,0.0,56,0.00,,---,0.00,VWS V14.01,2013-01-27 11:40:00,
2013-01-27 05:50:00,21.2,8.4,28.91,ENE,78,0.0,0.0,57,0.00,,---,0.00,VWS V14.01,2013-01-27 11:50:00,
2013-01-27 05:55:00,21.2,8.4,28.91,NE,50,0.0,0.0,57,0.00,,---,0.00,VWS V14.01,2013-01-27 11:55:00,
2013-01-27 06:00:00,21.2,8.4,28.91,NE,53,0.0,0.0,57,0.00,,---,0.00,VWS V14.01,2013-01-27 12:00:00,
2013-01-27 06:10:00,21.0,8.2,28.91,NE,52,0.0,0.0,57,0.00,,---,0.00,VWS V14.01,2013-01-27 12:10:00,
2013-01-27 06:15:00,21.0,8.6,28.91,ENE,71,0.0,0.0,58,0.00,,---,0.00,VWS V14.01,2013-01-27 12:15:00,
2013-01-27 06:20:00,20.8,8.4,28.91,ENE,58,0.0,0.0,58,0.00,,---,0.00,VWS V14.01,2013-01-27 12:20:00,
2013-01-27 06:25:00,20.8,8.4,28.91,ENE,58,0.0,0.0,58,0.00,,---,0.00,VWS V14.01,2013-01-27 12:25:00,
2013-01-27 06:30:00,20.8,8.4,28.91,ENE,58,0.0,0.0,58,0.00,,---,0.00,VWS V14.01,2013-01-27 12:30:00,
2013-01-27 06:40:00,20.8,8.4,28.91,ENE,58,0.0,0.0,58,0.00,,---,0.00,VWS V14.01,2013-01-27 12:40:00,
2013-01-27 06:50:00,20.8,8.8,28.91,ENE,58,0.0,0.0,59,0.00,,---,0.00,VWS V14.01,2013-01-27 12:50:00,
2013-01-27 07:00:00,20.8,8.8,28.91,NE,56,0.0,0.0,59,0.00,,---,0.00,VWS V14.01,2013-01-27 13:00:00,
2013-01-27 07:10:00,21.0,8.9,28.91,NE,56,0.0,0.0,59,0.00,,---,0.00,VWS V14.01,2013-01-27 13:10:00,
2013-01-27 07:15:00,21.0,9.3,28.91,NE,56,0.0,0.0,60,0.00,,---,0.00,VWS V14.01,2013-01-27 13:15:00,
2013-01-27 07:25:00,21.2,9.5,28.91,NE,56,0.0,0.0,60,0.00,,---,0.00,VWS V14.01,2013-01-27 13:25:00,
2013-01-27 07:35:00,21.2,9.5,28.91,NE,49,0.0,0.0,60,0.00,,---,0.00,VWS V14.01,2013-01-27 13:35:00,
2013-01-27 07:45:00,21.4,9.7,28.91,ENE,59,0.0,0.0,60,0.00,,---,0.00,VWS V14.01,2013-01-27 13:45:00,
2013-01-27 07:55:00,21.6,9.8,28.91,ENE,59,0.0,0.0,60,0.00,,---,0.00,VWS V14.01,2013-01-27 13:55:00,
2013-01-27 08:00:00,21.7,10.4,28.91,East,99,0.0,0.0,61,0.00,,---,0.00,VWS V14.01,2013-01-27 14:00:00,
2013-01-27 08:10:00,21.9,10.6,28.91,East,86,0.0,0.0,61,0.00,,---,0.00,VWS V14.01,2013-01-27 14:10:00,
2013-01-27 08:15:00,22.3,11.2,28.88,East,85,0.0,0.0,62,0.00,,---,0.00,VWS V14.01,2013-01-27 14:15:00,
2013-01-27 08:20:00,22.6,12.0,28.88,East,85,0.0,0.0,63,0.00,,---,0.00,VWS V14.01,2013-01-27 14:20:00,
2013-01-27 08:30:00,22.8,12.5,28.91,East,85,0.0,0.0,64,0.00,,---,0.00,VWS V14.01,2013-01-27 14:30:00,
2013-01-27 08:35:00,22.8,12.1,28.91,East,85,0.0,0.0,63,0.00,,---,0.00,VWS V14.01,2013-01-27 14:35:00,
2013-01-27 08:45:00,23.2,12.1,28.88,NE,55,0.0,0.0,62,0.00,,---,0.00,VWS V14.01,2013-01-27 14:45:00,
2013-01-27 08:50:00,23.4,12.3,28.88,ENE,68,0.0,0.0,62,0.00,,---,0.00,VWS V14.01,2013-01-27 14:50:00,
2013-01-27 09:00:00,23.7,12.6,28.88,ENE,64,0.0,0.0,62,0.00,,---,0.00,VWS V14.01,2013-01-27 15:00:00,
2013-01-27 09:05:00,23.9,12.8,28.88,NE,51,0.0,0.0,62,0.00,,---,0.00,VWS V14.01,2013-01-27 15:05:00,
2013-01-27 09:15:00,24.6,14.2,28.88,ENE,61,0.0,0.0,64,0.00,,---,0.00,VWS V14.01,2013-01-27 15:15:00,
2013-01-27 09:20:00,25.0,14.5,28.88,East,81,0.0,0.0,64,0.00,,---,0.00,VWS V14.01,2013-01-27 15:20:00,
2013-01-27 09:30:00,25.2,14.4,28.88,East,81,0.0,0.0,63,0.00,,---,0.00,VWS V14.01,2013-01-27 15:30:00,
2013-01-27 09:35:00,25.3,14.5,28.88,ESE,105,0.0,0.0,63,0.00,,---,0.00,VWS V14.01,2013-01-27 15:35:00,
2013-01-27 09:45:00,25.9,14.7,28.88,East,86,0.0,0.0,62,0.00,,---,0.00,VWS V14.01,2013-01-27 15:45:00,
2013-01-27 09:55:00,26.4,14.8,28.88,East,86,0.0,0.0,61,0.00,,---,0.00,VWS V14.01,2013-01-27 15:55:00,
2013-01-27 10:05:00,27.0,14.9,28.88,ESE,109,4.9,4.9,60,0.00,,---,0.00,VWS V14.01,2013-01-27 16:05:00,
2013-01-27 10:15:00,27.7,15.2,28.88,East,94,3.1,3.1,59,0.00,,---,0.00,VWS V14.01,2013-01-27 16:15:00,
2013-01-27 10:20:00,28.0,15.2,28.88,SE,139,3.6,3.6,58,0.00,,---,0.00,VWS V14.01,2013-01-27 16:20:00,
2013-01-27 10:30:00,28.9,15.2,28.88,ESE,123,7.6,7.6,56,0.00,,---,0.00,VWS V14.01,2013-01-27 16:30:00,
2013-01-27 10:40:00,29.5,14.9,28.88,SE,127,6.7,6.7,54,0.00,,---,0.00,VWS V14.01,2013-01-27 16:40:00,
2013-01-27 10:50:00,29.8,14.8,28.88,ESE,111,6.3,6.3,53,0.00,,---,0.00,VWS V14.01,2013-01-27 16:50:00,
2013-01-27 11:00:00,30.2,15.1,28.88,SE,127,8.7,8.7,53,0.00,,---,0.00,VWS V14.01,2013-01-27 17:00:00,
2013-01-27 11:05:00,30.4,14.9,28.88,SE,136,5.8,5.8,52,0.00,,---,0.00,VWS V14.01,2013-01-27 17:05:00,
2013-01-27 11:10:00,30.6,15.0,28.88,East,100,7.6,7.6,52,0.00,,---,0.00,VWS V14.01,2013-01-27 17:10:00,
2013-01-27 11:15:00,30.7,14.8,28.88,ESE,123,8.1,8.1,51,0.00,,---,0.00,VWS V14.01,2013-01-27 17:15:00,
2013-01-27 11:25:00,31.1,15.1,28.88,East,98,7.6,7.6,51,0.00,,---,0.00,VWS V14.01,2013-01-27 17:25:00,
2013-01-27 11:30:00,31.1,15.1,28.85,SE,130,6.3,6.3,51,0.00,,---,0.00,VWS V14.01,2013-01-27 17:30:00,
2013-01-27 11:40:00,31.3,15.3,28.85,ESE,109,6.3,6.3,51,0.00,,---,0.00,VWS V14.01,2013-01-27 17:40:00,
2013-01-27 11:50:00,31.3,15.3,28.85,SE,139,5.4,5.4,51,0.00,,---,0.00,VWS V14.01,2013-01-27 17:50:00,
2013-01-27 11:55:00,31.5,15.4,28.85,ESE,104,6.3,6.3,51,0.00,,---,0.00,VWS V14.01,2013-01-27 17:55:00,
2013-01-27 12:05:00,31.6,15.6,28.85,ESE,112,7.6,7.6,51,0.00,,---,0.00,VWS V14.01,2013-01-27 18:05:00,
2013-01-27 12:10:00,31.6,15.6,28.85,ESE,110,7.6,7.6,51,0.00,,---,0.00,VWS V14.01,2013-01-27 18:10:00,
2013-01-27 12:15:00,31.6,15.6,28.85,SE,141,8.1,8.1,51,0.00,,---,0.00,VWS V14.01,2013-01-27 18:15:00,
2013-01-27 12:25:00,31.8,16.2,28.85,ESE,111,8.3,8.3,52,0.00,,---,0.00,VWS V14.01,2013-01-27 18:25:00,
2013-01-27 12:35:00,31.8,16.2,28.85,SE,127,7.2,7.2,52,0.00,,---,0.00,VWS V14.01,2013-01-27 18:35:00,
2013-01-27 12:40:00,32.0,16.4,28.85,ESE,105,3.6,3.6,52,0.00,,---,0.00,VWS V14.01,2013-01-27 18:40:00,
2013-01-27 12:50:00,32.0,16.4,28.82,ESE,120,5.8,5.8,52,0.00,,---,0.00,VWS V14.01,2013-01-27 18:50:00,
2013-01-27 13:00:00,32.2,16.5,28.82,ESE,111,5.4,5.4,52,0.00,,---,0.00,VWS V14.01,2013-01-27 19:00:00,
2013-01-27 13:10:00,32.2,16.5,28.82,ESE,111,4.9,4.9,52,0.00,,---,0.00,VWS V14.01,2013-01-27 19:10:00,
2013-01-27 13:15:00,32.4,16.7,28.82,ESE,109,5.8,5.8,52,0.00,,---,0.00,VWS V14.01,2013-01-27 19:15:00,
2013-01-27 13:25:00,32.4,17.1,28.82,SE,146,8.3,8.3,53,0.00,,---,0.00,VWS V14.01,2013-01-27 19:25:00,
2013-01-27 13:35:00,32.5,17.3,28.82,SE,141,3.6,3.6,53,0.00,,---,0.00,VWS V14.01,2013-01-27 19:35:00,
2013-01-27 13:45:00,32.5,17.3,28.79,SE,138,5.8,5.8,53,0.00,,---,0.00,VWS V14.01,2013-01-27 19:45:00,
2013-01-27 13:55:00,32.5,18.2,28.79,ESE,118,4.5,4.5,55,0.00,,---,0.00,VWS V14.01,2013-01-27 19:55:00,
2013-01-27 14:00:00,32.5,18.2,28.79,SE,130,2.7,2.7,55,0.00,,---,0.00,VWS V14.01,2013-01-27 20:00:00,
2013-01-27 14:10:00,32.4,18.8,28.79,SE,126,5.8,5.8,57,0.00,,---,0.00,VWS V14.01,2013-01-27 20:10:00,
2013-01-27 14:15:00,32.4,20.0,28.79,ESE,113,7.6,7.6,60,0.00,,---,0.00,VWS V14.01,2013-01-27 20:15:00,
2013-01-27 14:20:00,32.2,20.6,28.79,ESE,115,6.3,6.3,62,0.00,,---,0.00,VWS V14.01,2013-01-27 20:20:00,
2013-01-27 14:30:00,32.2,22.1,28.76,SE,130,4.9,4.9,66,0.00,,---,0.00,VWS V14.01,2013-01-27 20:30:00,
2013-01-27 14:35:00,32.2,22.8,28.76,ESE,116,4.0,4.0,68,0.00,,---,0.00,VWS V14.01,2013-01-27 20:35:00,
2013-01-27 14:45:00,32.2,23.5,28.79,SE,136,4.9,4.9,70,0.00,,---,0.00,VWS V14.01,2013-01-27 20:45:00,
2013-01-27 14:55:00,32.4,24.4,28.79,ESE,109,2.7,2.7,72,0.00,,---,0.00,VWS V14.01,2013-01-27 20:55:00,
2013-01-27 15:00:00,32.5,25.2,28.76,East,99,3.6,3.6,74,0.00,,---,0.00,VWS V14.01,2013-01-27 21:00:00,
2013-01-27 15:10:00,32.9,25.9,28.76,ESE,114,4.0,4.0,75,0.00,,---,0.00,VWS V14.01,2013-01-27 21:10:00,
2013-01-27 15:20:00,33.3,26.5,28.79,ESE,118,3.1,3.1,76,0.00,,---,0.00,VWS V14.01,2013-01-27 21:20:00,
2013-01-27 15:25:00,33.4,27.0,28.79,ESE,115,3.1,3.1,77,0.00,,---,0.00,VWS V14.01,2013-01-27 21:25:00,
2013-01-27 15:30:00,33.6,27.2,28.76,SE,130,4.0,4.0,77,0.00,,---,0.00,VWS V14.01,2013-01-27 21:30:00,
2013-01-27 15:40:00,33.8,27.7,28.76,ESE,108,5.4,5.4,78,0.00,,---,0.00,VWS V14.01,2013-01-27 21:40:00,
2013-01-27 15:45:00,33.8,27.7,28.76,ESE,116,5.4,5.4,78,0.00,,---,0.00,VWS V14.01,2013-01-27 21:45:00,
2013-01-27 15:50:00,33.8,27.7,28.76,SE,129,3.6,3.6,78,0.00,,---,0.00,VWS V14.01,2013-01-27 21:50:00,
2013-01-27 15:55:00,33.8,27.7,28.76,SE,128,3.1,3.1,78,0.00,,---,0.00,VWS V14.01,2013-01-27 21:55:00,
2013-01-27 16:05:00,33.8,28.0,28.76,SE,127,0.0,0.0,79,0.00,,---,0.00,VWS V14.01,2013-01-27 22:05:00,
2013-01-27 16:15:00,33.8,28.0,28.76,SE,130,0.0,0.0,79,0.00,,---,0.00,VWS V14.01,2013-01-27 22:15:00,
2013-01-27 16:20:00,33.8,28.3,28.76,ESE,107,2.2,2.2,80,0.00,,---,0.00,VWS V14.01,2013-01-27 22:20:00,
2013-01-27 16:30:00,34.0,28.5,28.76,ESE,105,3.1,3.1,80,0.00,,---,0.00,VWS V14.01,2013-01-27 22:30:00,
2013-01-27 16:40:00,33.8,28.6,28.76,ESE,118,2.7,2.7,81,0.00,,---,0.00,VWS V14.01,2013-01-27 22:40:00,
2013-01-27 16:45:00,33.8,28.6,28.76,ESE,110,3.1,3.1,81,0.00,,---,0.00,VWS V14.01,2013-01-27 22:45:00,
2013-01-27 16:55:00,33.8,28.6,28.76,ESE,108,3.1,3.1,81,0.00,,---,0.00,VWS V14.01,2013-01-27 22:55:00,
2013-01-27 17:05:00,33.8,28.9,28.76,ENE,74,4.9,4.9,82,0.00,,---,0.00,VWS V14.01,2013-01-27 23:05:00,
2013-01-27 17:10:00,33.8,28.9,28.76,SE,127,2.7,2.7,82,0.00,,---,0.00,VWS V14.01,2013-01-27 23:10:00,
2013-01-27 17:15:00,33.8,28.9,28.76,East,92,2.7,2.7,82,0.00,,---,0.00,VWS V14.01,2013-01-27 23:15:00,
2013-01-27 17:25:00,33.8,29.2,28.76,ESE,112,0.0,0.0,83,0.00,,---,0.00,VWS V14.01,2013-01-27 23:25:00,
2013-01-27 17:30:00,33.8,29.2,28.76,ENE,61,0.0,0.0,83,0.00,,---,0.00,VWS V14.01,2013-01-27 23:30:00,
2013-01-27 17:40:00,33.8,29.2,28.76,SE,131,0.0,0.0,83,0.00,,---,0.00,VWS V14.01,2013-01-27 23:40:00,
2013-01-27 17:50:00,33.8,29.2,28.76,ENE,71,0.0,0.0,83,0.00,,---,0.00,VWS V14.01,2013-01-27 23:50:00,
2013-01-27 18:00:00,33.6,29.3,28.73,ESE,109,3.1,3.1,84,0.00,,---,0.00,VWS V14.01,2013-01-28 00:00:00,
2013-01-27 18:05:00,33.6,29.3,28.73,SE,125,2.2,2.2,84,0.00,,---,0.00,VWS V14.01,2013-01-28 00:05:00,
2013-01-27 18:10:00,33.6,29.6,28.73,ESE,107,0.0,0.0,85,0.00,,---,0.00,VWS V14.01,2013-01-28 00:10:00,
2013-01-27 18:15:00,33.4,29.4,28.76,East,96,0.0,0.0,85,0.00,,---,0.00,VWS V14.01,2013-01-28 00:15:00,
2013-01-27 18:25:00,33.4,29.4,28.76,East,101,0.0,0.0,85,0.00,,---,0.00,VWS V14.01,2013-01-28 00:25:00,
2013-01-27 18:35:00,33.3,29.2,28.76,ESE,106,3.1,3.1,85,0.00,,---,0.00,VWS V14.01,2013-01-28 00:35:00,
2013-01-27 18:40:00,33.1,29.1,28.76,SE,133,0.0,0.0,85,0.00,,---,0.00,VWS V14.01,2013-01-28 00:40:00,
2013-01-27 18:50:00,33.1,29.1,28.76,ESE,114,0.0,0.0,85,0.00,,---,0.00,VWS V14.01,2013-01-28 00:50:00,
2013-01-27 18:55:00,32.9,28.9,28.76,ESE,114,0.0,0.0,85,0.00,,---,0.00,VWS V14.01,2013-01-28 00:55:00,
2013-01-27 19:00:00,32.9,28.9,28.76,ESE,114,0.0,0.0,85,0.00,,---,0.00,VWS V14.01,2013-01-28 01:00:00,
2013-01-27 19:05:00,32.9,28.9,28.76,ESE,114,0.0,0.0,85,0.00,,---,0.00,VWS V14.01,2013-01-28 01:05:00,
2013-01-27 19:15:00,32.7,28.7,28.76,ESE,114,0.0,0.0,85,0.00,,---,0.00,VWS V14.01,2013-01-28 01:15:00,
2013-01-27 19:20:00,32.7,29.0,28.76,ESE,115,0.0,0.0,86,0.00,,---,0.00,VWS V14.01,2013-01-28 01:20:00,
2013-01-27 19:25:00,32.7,29.0,28.76,ESE,114,0.0,0.0,86,0.00,,---,0.00,VWS V14.01,2013-01-28 01:25:00,
2013-01-27 19:35:00,32.7,29.0,28.76,ESE,114,0.0,0.0,86,0.00,,---,0.00,VWS V14.01,2013-01-28 01:35:00,
2013-01-27 19:45:00,32.7,29.0,28.76,ESE,114,0.0,0.0,86,0.00,,---,0.00,VWS V14.01,2013-01-28 01:45:00,
2013-01-27 19:50:00,32.5,28.8,28.76,ESE,114,0.0,0.0,86,0.00,,---,0.00,VWS V14.01,2013-01-28 01:50:00,
2013-01-27 20:00:00,32.5,28.8,28.73,ESE,114,0.0,0.0,86,0.00,,---,0.00,VWS V14.01,2013-01-28 02:00:00,
2013-01-27 20:10:00,32.5,28.8,28.73,ESE,114,0.0,0.0,86,0.00,,---,0.00,VWS V14.01,2013-01-28 02:10:00,
2013-01-27 20:20:00,32.5,28.8,28.73,ESE,114,0.0,0.0,86,0.00,,---,0.00,VWS V14.01,2013-01-28 02:20:00,
2013-01-27 20:25:00,32.5,28.8,28.73,ESE,114,0.0,0.0,86,0.00,,---,0.00,VWS V14.01,2013-01-28 02:25:00,
2013-01-27 20:30:00,32.5,28.8,28.73,ESE,114,0.0,0.0,86,0.00,,---,0.00,VWS V14.01,2013-01-28 02:30:00,
2013-01-27 20:35:00,32.5,28.8,28.73,ESE,114,0.0,0.0,86,0.00,,---,0.00,VWS V14.01,2013-01-28 02:35:00,
2013-01-27 20:40:00,32.5,28.8,28.73,ESE,114,0.0,0.0,86,0.00,,---,0.00,VWS V14.01,2013-01-28 02:40:00,
2013-01-27 20:45:00,32.5,28.8,28.73,ESE,115,0.0,0.0,86,0.00,,---,0.00,VWS V14.01,2013-01-28 02:45:00,
2013-01-27 20:55:00,32.5,28.8,28.73,ESE,114,0.0,0.0,86,0.00,,---,0.00,VWS V14.01,2013-01-28 02:55:00,
2013-01-27 21:00:00,32.5,28.8,28.73,ESE,115,0.0,0.0,86,0.00,,---,0.00,VWS V14.01,2013-01-28 03:00:00,
2013-01-27 21:05:00,32.5,29.1,28.73,ESE,114,0.0,0.0,87,0.00,,---,0.00,VWS V14.01,2013-01-28 03:05:00,
2013-01-27 21:10:00,32.5,29.1,28.73,ESE,114,0.0,0.0,87,0.00,,---,0.00,VWS V14.01,2013-01-28 03:10:00,
2013-01-27 21:15:00,32.5,29.1,28.73,ESE,114,0.0,0.0,87,0.00,,---,0.00,VWS V14.01,2013-01-28 03:15:00,
2013-01-27 21:20:00,32.5,29.1,28.73,ESE,114,0.0,0.0,87,0.00,,---,0.00,VWS V14.01,2013-01-28 03:20:00,
2013-01-27 21:25:00,32.4,28.9,28.73,ESE,114,0.0,0.0,87,0.00,,---,0.00,VWS V14.01,2013-01-28 03:25:00,
2013-01-27 21:35:00,32.4,28.9,28.73,ESE,115,0.0,0.0,87,0.00,,---,0.00,VWS V14.01,2013-01-28 03:35:00,
2013-01-27 21:45:00,32.4,28.9,28.73,ESE,115,0.0,0.0,87,0.00,,---,0.00,VWS V14.01,2013-01-28 03:45:00,
2013-01-27 21:55:00,32.4,28.9,28.73,ESE,114,0.0,0.0,87,0.00,,---,0.00,VWS V14.01,2013-01-28 03:55:00,
2013-01-27 22:00:00,32.4,28.9,28.73,ESE,114,0.0,0.0,87,0.00,,---,0.00,VWS V14.01,2013-01-28 04:00:00,
2013-01-27 22:10:00,32.4,28.9,28.73,ESE,115,0.0,0.0,87,0.00,,---,0.00,VWS V14.01,2013-01-28 04:10:00,
2013-01-27 22:20:00,32.4,28.9,28.73,ESE,114,0.0,0.0,87,0.00,,---,0.00,VWS V14.01,2013-01-28 04:20:00,
2013-01-27 22:30:00,32.4,28.9,28.73,ESE,114,0.0,0.0,87,0.00,,---,0.00,VWS V14.01,2013-01-28 04:30:00,
2013-01-27 22:35:00,32.2,28.8,28.73,ESE,114,0.0,0.0,87,0.00,,---,0.00,VWS V14.01,2013-01-28 04:35:00,
2013-01-27 22:45:00,32.2,28.8,28.73,ESE,114,0.0,0.0,87,0.00,,---,0.00,VWS V14.01,2013-01-28 04:45:00,
2013-01-27 22:55:00,32.2,28.8,28.73,ESE,114,0.0,0.0,87,0.00,,---,0.00,VWS V14.01,2013-01-28 04:55:00,
2013-01-27 23:05:00,32.2,28.8,28.73,ESE,114,0.0,0.0,87,0.00,,---,0.00,VWS V14.01,2013-01-28 05:05:00,
2013-01-27 23:10:00,32.2,28.8,28.73,ESE,115,0.0,0.0,87,0.00,,---,0.00,VWS V14.01,2013-01-28 05:10:00,
2013-01-27 23:20:00,32.2,28.8,28.73,ESE,114,0.0,0.0,87,0.00,,---,0.00,VWS V14.01,2013-01-28 05:20:00,
2013-01-27 23:30:00,32.0,28.9,28.73,ESE,114,0.0,0.0,88,0.00,,---,0.00,VWS V14.01,2013-01-28 05:30:00,
2013-01-27 23:35:00,32.0,28.9,28.73,ESE,114,0.0,0.0,88,0.00,,---,0.00,VWS V14.01,2013-01-28 05:35:00,
2013-01-27 23:45:00,32.0,28.9,28.73,ESE,114,0.0,0.0,88,0.00,,---,0.00,VWS V14.01,2013-01-28 05:45:00,
2013-01-27 23:55:00,32.0,28.9,28.73,ESE,114,0.0,0.0,88,0.00,,---,0.00,VWS V14.01,2013-01-28 05:55:00,